createdAt,value
2023-05-20T00:00:02.060Z,15.75
2023-05-20T00:02:30.422Z,15.70
2023-05-20T00:04:58.965Z,15.71
2023-05-20T00:07:27.427Z,15.68
2023-05-20T00:09:55.891Z,15.70
2023-05-20T00:12:24.024Z,15.74
2023-05-20T00:14:55.877Z,15.75
2023-05-20T00:17:26.647Z,15.77
2023-05-20T00:19:55.166Z,15.79
2023-05-20T00:22:23.574Z,15.75
2023-05-20T00:24:51.914Z,15.77
2023-05-20T00:27:20.125Z,15.81
2023-05-20T00:29:48.323Z,15.83
2023-05-20T00:32:18.182Z,15.83
2023-05-20T00:34:56.980Z,15.83
2023-05-20T00:37:25.262Z,15.84
2023-05-20T00:39:53.962Z,15.82
2023-05-20T00:42:22.742Z,15.81
2023-05-20T00:44:51.079Z,15.81
2023-05-20T00:47:28.055Z,15.79
2023-05-20T00:49:56.529Z,15.79
2023-05-20T00:52:25.315Z,15.80
2023-05-20T00:54:54.308Z,15.77
2023-05-20T00:57:22.970Z,15.79
2023-05-20T00:59:51.357Z,15.81
2023-05-20T01:02:21.379Z,15.81
2023-05-20T01:04:49.830Z,15.79
2023-05-20T01:07:19.267Z,15.81
2023-05-20T01:09:47.654Z,15.80
2023-05-20T01:12:22.418Z,15.75
2023-05-20T01:14:52.407Z,15.73
2023-05-20T01:17:22.617Z,15.73
2023-05-20T01:19:51.710Z,15.70
2023-05-20T01:22:20.790Z,15.68
2023-05-20T01:24:53.708Z,15.67
2023-05-20T01:27:23.744Z,15.67
2023-05-20T01:29:52.995Z,15.64
2023-05-20T01:32:24.247Z,15.62
2023-05-20T01:34:54.315Z,15.60
2023-05-20T01:37:25.358Z,15.58
2023-05-20T01:39:56.807Z,15.58
2023-05-20T01:42:25.162Z,15.58
2023-05-20T01:44:53.758Z,15.51
2023-05-20T01:47:22.034Z,15.50
2023-05-20T01:49:53.108Z,15.48
2023-05-20T01:52:21.545Z,15.47
2023-05-20T01:54:51.484Z,15.48
2023-05-20T01:57:22.136Z,15.47
2023-05-20T01:59:50.594Z,15.45
2023-05-20T02:02:19.391Z,15.45
2023-05-20T02:04:49.349Z,15.44
2023-05-20T02:07:19.064Z,15.45
2023-05-20T02:09:47.767Z,15.47
2023-05-20T02:12:17.548Z,15.40
2023-05-20T02:14:50.514Z,15.40
2023-05-20T02:17:19.155Z,15.36
2023-05-20T02:19:47.791Z,15.36
2023-05-20T02:22:16.529Z,15.35
2023-05-20T02:24:44.953Z,15.34
2023-05-20T02:27:13.284Z,15.32
2023-05-20T02:29:41.681Z,15.36
2023-05-20T02:32:11.377Z,15.33
2023-05-20T02:34:39.558Z,15.32
2023-05-20T02:37:07.890Z,15.32
2023-05-20T02:39:36.176Z,15.32
2023-05-20T02:42:05.414Z,15.31
2023-05-20T02:44:33.527Z,15.30
2023-05-20T02:47:01.740Z,15.31
2023-05-20T02:49:31.520Z,15.31
2023-05-20T02:51:59.837Z,15.32
2023-05-20T02:54:28.136Z,15.34
2023-05-20T02:56:56.338Z,15.32
2023-05-20T02:59:24.912Z,15.31
2023-05-20T03:01:53.210Z,15.32
2023-05-20T03:04:21.916Z,15.32
2023-05-20T03:06:52.254Z,15.30
2023-05-20T03:09:21.069Z,15.31
2023-05-20T03:11:49.570Z,15.34
2023-05-20T03:14:17.733Z,15.31
2023-05-20T03:16:46.018Z,15.33
2023-05-20T03:19:14.263Z,15.35
2023-05-20T03:21:43.916Z,15.35
2023-05-20T03:24:13.591Z,15.36
2023-05-20T03:26:43.331Z,15.31
2023-05-20T03:29:11.929Z,15.32
2023-05-20T03:31:40.595Z,15.30
2023-05-20T03:34:09.369Z,15.29
2023-05-20T03:36:37.812Z,15.28
2023-05-20T03:39:06.125Z,15.26
2023-05-20T03:41:35.734Z,15.27
2023-05-20T03:44:03.978Z,15.26
2023-05-20T03:46:34.359Z,15.26
2023-05-20T03:49:03.336Z,15.23
2023-05-20T03:51:31.800Z,15.22
2023-05-20T03:54:00.074Z,15.27
2023-05-20T03:56:28.303Z,15.30
2023-05-20T03:58:58.434Z,15.28
2023-05-20T04:01:26.938Z,15.25
2023-05-20T04:03:55.337Z,15.25
2023-05-20T04:06:23.736Z,15.22
2023-05-20T04:08:53.696Z,15.20
2023-05-20T04:11:21.984Z,15.18
2023-05-20T04:13:50.153Z,15.17
2023-05-20T04:16:20.200Z,15.16
2023-05-20T04:18:48.588Z,15.16
2023-05-20T04:21:16.978Z,15.15
2023-05-20T04:23:45.277Z,15.11
2023-05-20T04:26:13.515Z,15.11
2023-05-20T04:28:42.162Z,15.08
2023-05-20T04:31:10.819Z,15.08
2023-05-20T04:33:40.472Z,15.10
2023-05-20T04:36:12.237Z,15.17
2023-05-20T04:38:42.403Z,15.16
2023-05-20T04:41:10.960Z,15.16
2023-05-20T04:43:40.497Z,15.18
2023-05-20T04:46:09.015Z,15.15
2023-05-20T04:48:37.306Z,15.17
2023-05-20T04:51:07.211Z,15.18
2023-05-20T04:53:36.196Z,15.17
2023-05-20T04:56:05.811Z,15.17
2023-05-20T04:58:34.209Z,15.16
2023-05-20T05:01:02.862Z,15.15
2023-05-20T05:03:31.445Z,15.13
2023-05-20T05:06:00.374Z,15.15
2023-05-20T05:08:30.033Z,15.18
2023-05-20T05:10:58.275Z,15.17
2023-05-20T05:13:26.831Z,15.20
2023-05-20T05:16:01.257Z,15.21
2023-05-20T05:18:29.564Z,15.19
2023-05-20T05:21:02.124Z,15.17
2023-05-20T05:23:31.840Z,15.17
2023-05-20T05:26:00.149Z,15.17
2023-05-20T05:28:28.398Z,15.21
2023-05-20T05:30:57.363Z,15.21
2023-05-20T05:33:25.825Z,15.24
2023-05-20T05:35:54.056Z,15.24
2023-05-20T05:38:22.198Z,15.23
2023-05-20T05:40:51.886Z,15.22
2023-05-20T05:43:20.171Z,15.23
2023-05-20T05:45:48.396Z,15.25
2023-05-20T05:48:16.655Z,15.25
2023-05-20T05:50:47.183Z,15.29
2023-05-20T05:53:15.505Z,15.33
2023-05-20T05:55:43.654Z,15.33
2023-05-20T05:58:13.668Z,15.34
2023-05-20T06:00:42.017Z,15.34
2023-05-20T06:03:10.558Z,15.36
2023-05-20T06:05:38.844Z,15.34
2023-05-20T06:08:07.231Z,15.35
2023-05-20T06:10:35.456Z,15.38
2023-05-20T06:13:03.694Z,15.38
2023-05-20T06:15:33.695Z,15.40
2023-05-20T06:18:02.122Z,15.40
2023-05-20T06:20:30.308Z,15.40
2023-05-20T06:22:58.670Z,15.37
2023-05-20T06:25:27.051Z,15.36
2023-05-20T06:27:55.251Z,15.36
2023-05-20T06:30:23.971Z,15.37
2023-05-20T06:32:54.019Z,15.38
2023-05-20T06:35:22.297Z,15.38
2023-05-20T06:37:50.739Z,15.43
2023-05-20T06:40:19.358Z,15.43
2023-05-20T06:42:47.656Z,15.46
2023-05-20T06:45:15.926Z,15.44
2023-05-20T06:47:44.171Z,15.47
2023-05-20T06:50:14.210Z,15.45
2023-05-20T06:52:42.424Z,15.45
2023-05-20T06:55:11.378Z,15.47
2023-05-20T06:57:39.718Z,15.46
2023-05-20T07:00:09.399Z,15.45
2023-05-20T07:02:37.652Z,15.44
2023-05-20T07:05:06.351Z,15.45
2023-05-20T07:07:36.112Z,15.47
2023-05-20T07:10:05.904Z,15.46
2023-05-20T07:12:36.539Z,15.45
2023-05-20T07:15:05.508Z,15.43
2023-05-20T07:17:33.754Z,15.43
2023-05-20T07:20:02.059Z,15.45
2023-05-20T07:22:30.366Z,15.43
2023-05-20T07:25:01.371Z,15.41
2023-05-20T07:27:29.578Z,15.38
2023-05-20T07:29:57.966Z,15.42
2023-05-20T07:32:26.356Z,15.45
2023-05-20T07:34:54.860Z,15.45
2023-05-20T07:37:23.177Z,15.45
2023-05-20T07:39:51.392Z,15.47
2023-05-20T07:42:21.381Z,15.50
2023-05-20T07:44:49.649Z,15.50
2023-05-20T07:47:17.812Z,15.56
2023-05-20T07:49:47.022Z,15.62
2023-05-20T07:52:15.321Z,15.64
2023-05-20T07:54:43.599Z,15.68
2023-05-20T07:57:12.158Z,15.72
2023-05-20T07:59:41.809Z,15.76
2023-05-20T08:02:10.117Z,15.79
2023-05-20T08:04:38.826Z,15.77
2023-05-20T08:07:07.351Z,15.81
2023-05-20T08:09:36.236Z,15.86
2023-05-20T08:12:04.744Z,15.86
2023-05-20T08:14:33.024Z,15.86
2023-05-20T08:17:02.801Z,15.84
2023-05-20T08:19:31.204Z,15.84
2023-05-20T08:22:00.009Z,15.87
2023-05-20T08:24:28.342Z,15.87
2023-05-20T08:26:56.708Z,15.88
2023-05-20T08:29:25.419Z,15.88
2023-05-20T08:31:53.742Z,15.90
2023-05-20T08:34:23.348Z,15.93
2023-05-20T08:36:51.620Z,15.98
2023-05-20T08:39:19.833Z,16.00
2023-05-20T08:41:49.046Z,16.05
2023-05-20T08:44:20.317Z,16.08
2023-05-20T08:46:50.154Z,16.09
2023-05-20T08:49:18.679Z,16.10
2023-05-20T08:51:49.309Z,16.08
2023-05-20T08:54:19.233Z,16.14
2023-05-20T08:56:47.971Z,16.16
2023-05-20T08:59:17.014Z,16.18
2023-05-20T09:01:45.915Z,16.16
2023-05-20T09:04:14.177Z,16.19
2023-05-20T09:06:46.178Z,16.22
2023-05-20T09:09:16.224Z,16.22
2023-05-20T09:11:44.930Z,16.23
2023-05-20T09:14:13.140Z,16.24
2023-05-20T09:16:42.644Z,16.27
2023-05-20T09:19:11.918Z,16.28
2023-05-20T09:21:43.195Z,16.28
2023-05-20T09:24:11.491Z,16.28
2023-05-20T09:26:41.629Z,16.27
2023-05-20T09:29:09.878Z,16.28
2023-05-20T09:31:39.021Z,16.31
2023-05-20T09:34:08.734Z,16.34
2023-05-20T09:36:37.420Z,16.32
2023-05-20T09:39:07.014Z,16.27
2023-05-20T09:41:39.763Z,16.34
2023-05-20T09:44:10.099Z,16.36
2023-05-20T09:46:39.808Z,16.39
2023-05-20T09:49:08.502Z,16.38
2023-05-20T09:51:37.142Z,16.34
2023-05-20T09:54:08.525Z,16.31
2023-05-20T09:56:38.077Z,16.27
2023-05-20T09:59:09.290Z,16.23
2023-05-20T10:01:37.508Z,16.25
2023-05-20T10:04:08.742Z,16.21
2023-05-20T10:06:57.673Z,16.19
2023-05-20T10:09:49.814Z,16.24
2023-05-20T10:12:28.994Z,16.25
2023-05-20T10:15:10.109Z,16.25
2023-05-20T10:17:46.883Z,16.26
2023-05-20T10:20:15.708Z,16.32
2023-05-20T10:22:45.461Z,16.36
2023-05-20T10:25:25.513Z,16.41
2023-05-20T10:27:53.871Z,16.44
2023-05-20T10:30:24.072Z,16.51
2023-05-20T10:32:56.815Z,16.58
2023-05-20T10:35:27.324Z,16.67
2023-05-20T10:37:56.891Z,16.77
2023-05-20T10:40:26.956Z,16.87
2023-05-20T10:42:55.248Z,16.93
2023-05-20T10:45:29.224Z,16.95
2023-05-20T10:47:58.514Z,16.94
2023-05-20T10:50:31.758Z,16.99
2023-05-20T10:53:09.388Z,16.98
2023-05-20T10:55:42.505Z,16.96
2023-05-20T10:58:11.684Z,17.01
2023-05-20T11:00:41.636Z,17.06
2023-05-20T11:03:11.984Z,17.11
2023-05-20T11:05:41.709Z,17.17
2023-05-20T11:08:27.196Z,17.16
2023-05-20T11:10:58.037Z,17.18
2023-05-20T11:13:26.872Z,17.17
2023-05-20T11:15:57.611Z,17.20
2023-05-20T11:18:25.973Z,17.24
2023-05-20T11:20:54.532Z,17.27
2023-05-20T11:23:23.471Z,17.32
2023-05-20T11:25:52.624Z,17.38
2023-05-20T11:28:21.833Z,17.39
2023-05-20T11:30:50.547Z,17.44
2023-05-20T11:33:20.726Z,17.53
2023-05-20T11:35:50.970Z,17.56
2023-05-20T11:38:20.831Z,17.60
2023-05-20T11:40:54.333Z,17.61
2023-05-20T11:43:24.605Z,17.59
2023-05-20T11:45:55.952Z,17.57
2023-05-20T11:48:26.007Z,17.56
2023-05-20T11:50:55.716Z,17.53
2023-05-20T11:53:25.607Z,17.60
2023-05-20T11:55:56.191Z,17.68
2023-05-20T11:58:26.442Z,17.70
2023-05-20T12:01:05.242Z,17.75
2023-05-20T12:03:39.538Z,17.79
2023-05-20T12:06:08.033Z,17.84
2023-05-20T12:08:36.315Z,17.87
2023-05-20T12:11:04.478Z,17.91
2023-05-20T12:13:34.911Z,17.93
2023-05-20T12:16:04.422Z,17.94
2023-05-20T12:18:33.104Z,17.93
2023-05-20T12:21:02.879Z,17.88
2023-05-20T12:23:34.380Z,17.93
2023-05-20T12:26:02.912Z,17.94
2023-05-20T12:28:32.164Z,17.95
2023-05-20T12:31:01.139Z,17.93
2023-05-20T12:33:29.814Z,17.98
2023-05-20T12:35:58.148Z,17.94
2023-05-20T12:38:28.194Z,17.95
2023-05-20T12:40:56.759Z,17.96
2023-05-20T12:43:25.001Z,17.93
2023-05-20T12:45:53.590Z,17.87
2023-05-20T12:48:21.955Z,17.78
2023-05-20T12:50:50.149Z,17.72
2023-05-20T12:53:18.383Z,17.72
2023-05-20T12:55:48.073Z,17.67
2023-05-20T12:58:16.273Z,17.66
2023-05-20T13:00:44.527Z,17.69
2023-05-20T13:03:13.084Z,17.76
2023-05-20T13:05:41.440Z,17.80
2023-05-20T13:08:11.045Z,17.89
2023-05-20T13:10:39.499Z,17.90
2023-05-20T13:13:09.134Z,17.93
2023-05-20T13:15:37.474Z,17.96
2023-05-20T13:18:07.151Z,17.97
2023-05-20T13:20:35.903Z,17.97
2023-05-20T13:23:04.460Z,17.93
2023-05-20T13:25:33.369Z,17.90
2023-05-20T13:28:01.613Z,17.88
2023-05-20T13:30:31.142Z,17.85
2023-05-20T13:33:00.855Z,17.89
2023-05-20T13:35:29.245Z,17.95
2023-05-20T13:37:57.605Z,17.91
2023-05-20T13:40:26.612Z,17.91
2023-05-20T13:42:55.437Z,17.91
2023-05-20T13:45:23.800Z,17.93
2023-05-20T13:47:53.413Z,17.88
2023-05-20T13:50:21.634Z,17.87
2023-05-20T13:52:49.979Z,17.84
2023-05-20T13:55:18.254Z,17.92
2023-05-20T13:57:46.488Z,17.96
2023-05-20T14:00:15.788Z,17.97
2023-05-20T14:02:44.006Z,18.00
2023-05-20T14:05:14.932Z,18.05
2023-05-20T14:07:43.266Z,18.08
2023-05-20T14:10:12.155Z,18.11
2023-05-20T14:12:40.407Z,18.10
2023-05-20T14:15:09.688Z,18.07
2023-05-20T14:17:37.879Z,18.02
2023-05-20T14:20:07.483Z,18.03
2023-05-20T14:22:37.263Z,18.04
2023-05-20T14:25:06.313Z,18.01
2023-05-20T14:27:34.619Z,17.97
2023-05-20T14:30:02.756Z,17.92
2023-05-20T14:32:31.040Z,17.90
2023-05-20T14:35:00.161Z,17.84
2023-05-20T14:37:28.493Z,17.80
2023-05-20T14:39:58.226Z,17.74
2023-05-20T14:42:26.717Z,17.75
2023-05-20T14:44:54.936Z,17.72
2023-05-20T14:47:23.306Z,17.68
2023-05-20T14:49:51.595Z,17.70
2023-05-20T14:52:20.068Z,17.72
2023-05-20T14:54:48.528Z,17.70
2023-05-20T14:57:18.603Z,17.71
2023-05-20T14:59:46.932Z,17.75
2023-05-20T15:02:16.299Z,17.67
2023-05-20T15:04:46.733Z,17.65
2023-05-20T15:07:15.507Z,17.65
2023-05-20T15:09:43.928Z,17.69
2023-05-20T15:12:12.758Z,17.69
2023-05-20T15:14:42.363Z,17.69
2023-05-20T15:17:10.611Z,17.68
2023-05-20T15:19:41.402Z,17.69
2023-05-20T15:22:10.327Z,17.74
2023-05-20T15:24:38.595Z,17.79
2023-05-20T15:27:07.144Z,17.84
2023-05-20T15:29:35.699Z,17.84
2023-05-20T15:32:06.084Z,17.84
2023-05-20T15:34:34.713Z,17.90
2023-05-20T15:37:03.343Z,17.96
2023-05-20T15:39:31.678Z,17.99
2023-05-20T15:42:02.162Z,17.89
2023-05-20T15:44:30.422Z,17.91
2023-05-20T15:46:58.732Z,17.87
2023-05-20T15:49:28.940Z,17.80
2023-05-20T15:52:03.415Z,17.74
2023-05-20T15:54:33.168Z,17.66
2023-05-20T15:57:02.714Z,17.60
2023-05-20T15:59:31.042Z,17.50
2023-05-20T16:01:59.536Z,17.48
2023-05-20T16:04:29.705Z,17.45
2023-05-20T16:06:57.916Z,17.40
2023-05-20T16:09:26.200Z,17.28
2023-05-20T16:11:54.410Z,17.28
2023-05-20T16:14:22.651Z,17.24
2023-05-20T16:16:50.858Z,17.19
2023-05-20T16:19:19.123Z,17.24
2023-05-20T16:21:48.925Z,17.25
2023-05-20T16:24:17.530Z,17.26
2023-05-20T16:26:45.895Z,17.28
2023-05-20T16:29:16.407Z,17.27
2023-05-20T16:31:46.848Z,17.27
2023-05-20T16:34:16.546Z,17.26
2023-05-20T16:36:46.398Z,17.23
2023-05-20T16:39:16.603Z,17.23
2023-05-20T16:41:44.869Z,17.26
2023-05-20T16:44:13.146Z,17.27
2023-05-20T16:46:41.439Z,17.27
2023-05-20T16:49:09.845Z,17.26
2023-05-20T16:51:38.171Z,17.24
2023-05-20T16:54:06.610Z,17.22
2023-05-20T16:56:36.885Z,17.20
2023-05-20T16:59:05.233Z,17.19
2023-05-20T17:01:33.591Z,17.18
2023-05-20T17:04:02.014Z,17.18
2023-05-20T17:06:34.558Z,17.17
2023-05-20T17:09:04.439Z,17.15
2023-05-20T17:11:32.714Z,17.14
2023-05-20T17:14:03.184Z,17.08
2023-05-20T17:16:31.489Z,17.03
2023-05-20T17:18:59.893Z,16.98
2023-05-20T17:21:28.413Z,16.93
2023-05-20T17:23:56.715Z,16.90
2023-05-20T17:26:26.149Z,16.86
2023-05-20T17:28:54.375Z,16.82
2023-05-20T17:31:24.234Z,16.76
2023-05-20T17:33:52.536Z,16.69
2023-05-20T17:36:22.662Z,16.66
2023-05-20T17:38:51.634Z,16.60
2023-05-20T17:41:19.970Z,16.63
2023-05-20T17:43:48.276Z,16.61
2023-05-20T17:46:16.638Z,16.64
2023-05-20T17:48:46.242Z,16.66
2023-05-20T17:51:14.502Z,16.65
2023-05-20T17:53:42.708Z,16.68
2023-05-20T17:56:11.108Z,16.71
2023-05-20T17:58:39.348Z,16.75
2023-05-20T18:01:09.407Z,16.77
2023-05-20T18:03:39.878Z,16.77
2023-05-20T18:06:09.738Z,16.81
2023-05-20T18:08:38.799Z,16.79
2023-05-20T18:11:07.378Z,16.79
2023-05-20T18:13:35.705Z,16.78
2023-05-20T18:16:04.096Z,16.76
2023-05-20T18:18:32.416Z,16.72
2023-05-20T18:21:00.794Z,16.70
2023-05-20T18:23:30.558Z,16.68
2023-05-20T18:25:58.842Z,16.65
2023-05-20T18:28:27.024Z,16.63
2023-05-20T18:30:55.816Z,16.61
2023-05-20T18:33:24.956Z,16.60
2023-05-20T18:35:54.260Z,16.59
2023-05-20T18:38:23.394Z,16.57
2023-05-20T18:40:53.111Z,16.56
2023-05-20T18:43:21.339Z,16.54
2023-05-20T18:45:49.683Z,16.45
2023-05-20T18:48:26.262Z,16.45
2023-05-20T18:50:56.389Z,16.43
2023-05-20T18:53:24.596Z,16.43
2023-05-20T18:55:54.308Z,16.40
2023-05-20T18:58:22.831Z,16.38
2023-05-20T19:00:51.205Z,16.41
2023-05-20T19:03:19.817Z,16.38
2023-05-20T19:05:48.157Z,16.40
2023-05-20T19:08:16.540Z,16.40
2023-05-20T19:10:45.027Z,16.39
2023-05-20T19:13:14.921Z,16.40
2023-05-20T19:15:43.361Z,16.37
2023-05-20T19:18:11.804Z,16.36
2023-05-20T19:20:40.149Z,16.37
2023-05-20T19:23:08.465Z,16.42
2023-05-20T19:25:36.977Z,16.41
2023-05-20T19:28:06.001Z,16.39
2023-05-20T19:30:35.751Z,16.38
2023-05-20T19:33:05.861Z,16.36
2023-05-20T19:35:34.910Z,16.35
2023-05-20T19:38:05.029Z,16.35
2023-05-20T19:40:33.313Z,16.33
2023-05-20T19:43:01.421Z,16.30
2023-05-20T19:45:29.850Z,16.28
2023-05-20T19:48:00.064Z,16.24
2023-05-20T19:50:28.433Z,16.19
2023-05-20T19:52:56.624Z,16.18
2023-05-20T19:55:24.915Z,16.15
2023-05-20T19:57:53.717Z,16.10
2023-05-20T20:00:22.668Z,16.07
2023-05-20T20:02:51.425Z,16.07
2023-05-20T20:05:23.767Z,16.05
2023-05-20T20:07:52.181Z,16.04
2023-05-20T20:10:20.345Z,16.02
2023-05-20T20:12:48.963Z,16.00
2023-05-20T20:15:17.506Z,15.99
2023-05-20T20:17:52.070Z,15.99
2023-05-20T20:20:23.543Z,15.98
2023-05-20T20:22:51.993Z,15.96
2023-05-20T20:25:21.745Z,15.93
2023-05-20T20:27:50.270Z,15.89
2023-05-20T20:30:18.587Z,15.89
2023-05-20T20:32:48.387Z,15.82
2023-05-20T20:35:17.245Z,15.82
2023-05-20T20:37:46.856Z,15.81
2023-05-20T20:40:15.173Z,15.79
2023-05-20T20:42:45.455Z,15.79
2023-05-20T20:45:13.825Z,15.75
2023-05-20T20:47:44.100Z,15.74
2023-05-20T20:50:12.854Z,15.76
2023-05-20T20:52:42.864Z,15.73
2023-05-20T20:55:13.091Z,15.74
2023-05-20T20:57:42.170Z,15.74
2023-05-20T21:00:16.701Z,15.74
2023-05-20T21:02:44.951Z,15.74
2023-05-20T21:05:14.681Z,15.75
2023-05-20T21:07:44.732Z,15.74
2023-05-20T21:10:14.629Z,15.74
2023-05-20T21:12:42.791Z,15.73
2023-05-20T21:15:12.647Z,15.74
2023-05-20T21:17:40.988Z,15.71
2023-05-20T21:20:10.277Z,15.72
2023-05-20T21:22:38.469Z,15.74
2023-05-20T21:25:07.750Z,15.72
2023-05-20T21:27:37.323Z,15.72
2023-05-20T21:30:06.475Z,15.70
2023-05-20T21:32:34.816Z,15.70
2023-05-20T21:35:03.230Z,15.68
2023-05-20T21:37:32.086Z,15.68
2023-05-20T21:40:00.301Z,15.67
2023-05-20T21:42:29.079Z,15.67
2023-05-20T21:44:58.850Z,15.66
2023-05-20T21:47:27.188Z,15.66
2023-05-20T21:49:55.400Z,15.65
2023-05-20T21:52:23.587Z,15.63
2023-05-20T21:54:51.885Z,15.63
2023-05-20T21:57:20.054Z,15.63
2023-05-20T21:59:48.985Z,15.61
2023-05-20T22:02:18.856Z,15.59
2023-05-20T22:04:49.393Z,15.62
2023-05-20T22:07:17.598Z,15.58
2023-05-20T22:09:45.890Z,15.57
2023-05-20T22:12:15.607Z,15.54
2023-05-20T22:14:43.800Z,15.53
2023-05-20T22:17:12.125Z,15.54
2023-05-20T22:19:41.669Z,15.54
2023-05-20T22:22:09.848Z,15.52
2023-05-20T22:24:38.193Z,15.56
2023-05-20T22:27:06.768Z,15.55
2023-05-20T22:29:35.294Z,15.57
2023-05-20T22:32:03.667Z,15.57
2023-05-20T22:34:32.337Z,15.57
2023-05-20T22:37:02.289Z,15.55
2023-05-20T22:39:30.653Z,15.55
2023-05-20T22:41:58.879Z,15.54
2023-05-20T22:44:27.153Z,15.53
2023-05-20T22:46:55.326Z,15.52
2023-05-20T22:49:25.260Z,15.51
2023-05-20T22:51:53.857Z,15.52
2023-05-20T22:54:23.479Z,15.52
2023-05-20T22:56:56.832Z,15.51
2023-05-20T22:59:25.282Z,15.49
2023-05-20T23:01:54.459Z,15.49
2023-05-20T23:04:22.675Z,15.51
2023-05-20T23:06:53.981Z,15.51
2023-05-20T23:09:23.669Z,15.52
2023-05-20T23:11:51.961Z,15.53
2023-05-20T23:14:21.326Z,15.52
2023-05-20T23:16:49.587Z,15.52
2023-05-20T23:19:18.082Z,15.51
2023-05-20T23:21:46.831Z,15.51
2023-05-20T23:24:15.622Z,15.49
2023-05-20T23:26:45.132Z,15.50
2023-05-20T23:29:13.399Z,15.50
2023-05-20T23:31:41.830Z,15.50
2023-05-20T23:34:10.217Z,15.50
2023-05-20T23:36:42.191Z,15.49
2023-05-20T23:39:10.603Z,15.47
2023-05-20T23:41:38.756Z,15.48
2023-05-20T23:44:08.436Z,15.49
2023-05-20T23:46:38.111Z,15.48
2023-05-20T23:49:06.845Z,15.47
2023-05-20T23:51:35.842Z,15.47
2023-05-20T23:54:04.102Z,15.45
2023-05-20T23:56:32.362Z,15.43
2023-05-20T23:59:00.500Z,15.40
